createdAt,value
2023-04-17T00:00:14.706Z,56.75
2023-04-17T00:02:41.809Z,55.08
2023-04-17T00:05:09.564Z,66.10
2023-04-17T00:07:38.881Z,53.20
2023-04-17T00:10:10.371Z,47.85
2023-04-17T00:12:37.936Z,46.88
2023-04-17T00:15:05.074Z,45.17
2023-04-17T00:17:32.448Z,47.47
2023-04-17T00:19:59.209Z,42.40
2023-04-17T00:22:26.170Z,46.58
2023-04-17T00:24:53.000Z,44.08
2023-04-17T00:27:19.912Z,48.63
2023-04-17T00:29:46.675Z,44.17
2023-04-17T00:32:13.557Z,50.90
2023-04-17T00:34:40.984Z,47.15
2023-04-17T00:37:07.817Z,44.13
2023-04-17T00:39:34.691Z,49.75
2023-04-17T00:42:01.683Z,54.95
2023-04-17T00:44:28.601Z,43.28
2023-04-17T00:46:56.562Z,49.30
2023-04-17T00:49:23.680Z,49.28
2023-04-17T00:51:50.806Z,48.33
2023-04-17T00:54:19.197Z,44.58
2023-04-17T00:56:46.337Z,51.63
2023-04-17T00:59:16.129Z,53.47
2023-04-17T01:01:45.123Z,49.50
2023-04-17T01:04:12.622Z,48.67
2023-04-17T01:06:40.557Z,48.10
2023-04-17T01:09:08.090Z,63.67
2023-04-17T01:11:34.873Z,55.65
2023-04-17T01:14:01.995Z,59.42
2023-04-17T01:16:30.420Z,60.33
2023-04-17T01:18:57.366Z,69.28
2023-04-17T01:21:25.621Z,57.35
2023-04-17T01:23:53.247Z,53.70
2023-04-17T01:26:23.116Z,59.63
2023-04-17T01:28:54.396Z,57.97
2023-04-17T01:31:21.452Z,62.75
2023-04-17T01:33:48.830Z,65.97
2023-04-17T01:36:15.885Z,60.88
2023-04-17T01:38:42.694Z,57.38
2023-04-17T01:41:10.319Z,56.45
2023-04-17T01:43:38.290Z,55.53
2023-04-17T01:46:05.494Z,56.60
2023-04-17T01:48:33.082Z,58.03
2023-04-17T01:51:00.053Z,53.58
2023-04-17T01:53:27.268Z,55.78
2023-04-17T01:55:54.453Z,60.13
2023-04-17T01:58:21.499Z,56.78
2023-04-17T02:00:49.008Z,58.35
2023-04-17T02:03:16.609Z,67.38
2023-04-17T02:05:47.359Z,49.28
2023-04-17T02:08:14.425Z,50.20
2023-04-17T02:10:41.917Z,46.88
2023-04-17T02:13:09.581Z,53.08
2023-04-17T02:15:39.604Z,52.40
2023-04-17T02:18:06.712Z,51.20
2023-04-17T02:20:35.860Z,48.30
2023-04-17T02:23:03.535Z,51.15
2023-04-17T02:25:31.462Z,40.28
2023-04-17T02:27:58.382Z,40.25
2023-04-17T02:30:27.693Z,44.50
2023-04-17T02:32:56.409Z,42.65
2023-04-17T02:35:24.593Z,48.03
2023-04-17T02:37:51.843Z,36.65
2023-04-17T02:40:21.540Z,50.08
2023-04-17T02:42:51.766Z,44.10
2023-04-17T02:45:18.674Z,44.63
2023-04-17T02:47:45.635Z,37.33
2023-04-17T02:50:12.498Z,39.65
2023-04-17T02:52:50.158Z,42.85
2023-04-17T02:55:17.527Z,41.15
2023-04-17T02:57:44.321Z,39.80
2023-04-17T03:00:14.148Z,39.50
2023-04-17T03:02:41.344Z,37.08
2023-04-17T03:05:08.394Z,37.20
2023-04-17T03:07:35.299Z,39.55
2023-04-17T03:10:02.953Z,39.90
2023-04-17T03:12:30.974Z,34.72
2023-04-17T03:14:57.903Z,38.28
2023-04-17T03:17:24.748Z,40.22
2023-04-17T03:19:52.577Z,38.17
2023-04-17T03:22:19.391Z,35.92
2023-04-17T03:24:47.576Z,35.85
2023-04-17T03:27:14.636Z,37.35
2023-04-17T03:29:42.453Z,39.45
2023-04-17T03:32:10.056Z,38.45
2023-04-17T03:34:37.087Z,45.05
2023-04-17T03:37:03.954Z,41.88
2023-04-17T03:39:31.548Z,44.70
2023-04-17T03:41:58.407Z,37.83
2023-04-17T03:44:25.473Z,37.97
2023-04-17T03:46:52.391Z,37.15
2023-04-17T03:49:19.378Z,41.28
2023-04-17T03:51:46.350Z,40.60
2023-04-17T03:54:18.152Z,42.97
2023-04-17T03:56:47.863Z,37.33
2023-04-17T03:59:14.557Z,43.63
2023-04-17T04:01:45.349Z,39.35
2023-04-17T04:04:17.958Z,38.80
2023-04-17T04:06:47.347Z,36.67
2023-04-17T04:09:16.259Z,38.42
2023-04-17T04:11:43.291Z,41.47
2023-04-17T04:14:10.806Z,38.55
2023-04-17T04:16:38.311Z,42.85
2023-04-17T04:19:11.292Z,43.55
2023-04-17T04:21:38.348Z,46.83
2023-04-17T04:24:08.612Z,44.17
2023-04-17T04:26:41.086Z,44.45
2023-04-17T04:29:09.019Z,43.90
2023-04-17T04:32:02.076Z,39.63
2023-04-17T04:34:36.460Z,41.30
2023-04-17T04:37:03.536Z,42.40
2023-04-17T04:39:38.290Z,45.80
2023-04-17T04:42:10.397Z,43.97
2023-04-17T04:44:51.890Z,47.88
2023-04-17T04:47:20.442Z,43.20
2023-04-17T04:49:49.268Z,45.53
2023-04-17T04:52:19.929Z,48.63
2023-04-17T04:54:50.753Z,44.80
2023-04-17T04:57:17.536Z,48.45
2023-04-17T04:59:46.752Z,43.78
2023-04-17T05:02:34.200Z,48.53
2023-04-17T05:05:02.257Z,42.15
2023-04-17T05:07:32.288Z,42.88
2023-04-17T05:10:00.548Z,47.10
2023-04-17T05:12:31.596Z,48.42
2023-04-17T05:14:58.392Z,47.95
2023-04-17T05:17:26.160Z,51.25
2023-04-17T05:19:53.323Z,47.30
2023-04-17T05:22:21.988Z,50.20
2023-04-17T05:25:05.737Z,52.35
2023-04-17T05:27:32.537Z,48.15
2023-04-17T05:30:00.470Z,52.35
2023-04-17T05:32:27.544Z,56.85
2023-04-17T05:34:58.402Z,51.15
2023-04-17T05:37:27.405Z,48.33
2023-04-17T05:39:55.836Z,47.95
2023-04-17T05:42:22.617Z,56.00
2023-04-17T05:44:49.335Z,53.00
2023-04-17T05:47:16.211Z,54.50
2023-04-17T05:49:44.019Z,56.33
2023-04-17T05:52:11.117Z,49.72
2023-04-17T05:54:42.728Z,54.60
2023-04-17T05:57:09.621Z,52.88
2023-04-17T05:59:37.297Z,61.58
2023-04-17T06:02:04.917Z,54.88
2023-04-17T06:04:33.177Z,47.67
2023-04-17T06:07:02.560Z,49.67
2023-04-17T06:09:29.402Z,52.55
2023-04-17T06:11:56.641Z,54.63
2023-04-17T06:14:23.363Z,57.33
2023-04-17T06:16:50.754Z,55.95
2023-04-17T06:19:17.672Z,53.05
2023-04-17T06:21:45.203Z,55.33
2023-04-17T06:24:15.073Z,56.45
2023-04-17T06:26:46.196Z,53.10
2023-04-17T06:29:13.941Z,46.78
2023-04-17T06:31:41.686Z,47.65
2023-04-17T06:34:09.474Z,45.70
2023-04-17T06:36:41.174Z,49.67
2023-04-17T06:39:08.339Z,46.55
2023-04-17T06:41:35.156Z,48.28
2023-04-17T06:44:02.079Z,47.15
2023-04-17T06:46:44.461Z,45.15
2023-04-17T06:49:12.453Z,48.60
2023-04-17T06:51:39.621Z,47.50
2023-04-17T06:54:06.460Z,47.70
2023-04-17T06:56:35.784Z,52.03
2023-04-17T06:59:03.175Z,50.83
2023-04-17T07:01:35.123Z,51.60
2023-04-17T07:04:02.433Z,52.22
2023-04-17T07:06:29.377Z,47.40
2023-04-17T07:08:57.423Z,50.67
2023-04-17T07:11:24.202Z,48.55
2023-04-17T07:13:51.316Z,46.25
2023-04-17T07:16:18.240Z,48.38
2023-04-17T07:18:45.044Z,52.15
2023-04-17T07:21:11.989Z,51.05
2023-04-17T07:23:38.969Z,49.17
2023-04-17T07:26:06.572Z,49.70
2023-04-17T07:28:34.212Z,51.17
2023-04-17T07:31:00.992Z,53.10
2023-04-17T07:33:27.891Z,52.38
2023-04-17T07:35:54.760Z,51.20
2023-04-17T07:38:21.700Z,54.17
2023-04-17T07:40:48.655Z,53.53
2023-04-17T07:43:16.719Z,49.95
2023-04-17T07:45:43.639Z,57.42
2023-04-17T07:48:11.096Z,48.38
2023-04-17T07:50:37.889Z,52.90
2023-04-17T07:53:04.702Z,45.50
2023-04-17T07:55:34.475Z,45.97
2023-04-17T07:58:03.630Z,43.63
2023-04-17T08:00:30.839Z,46.72
2023-04-17T08:02:58.328Z,48.92
2023-04-17T08:05:25.579Z,47.00
2023-04-17T08:07:52.579Z,45.33
2023-04-17T08:10:19.719Z,45.38
2023-04-17T08:12:46.508Z,53.20
2023-04-17T08:15:13.427Z,57.10
2023-04-17T08:17:41.436Z,48.08
2023-04-17T08:20:11.730Z,50.80
2023-04-17T08:22:39.713Z,50.10
2023-04-17T08:25:09.753Z,48.17
2023-04-17T08:27:37.092Z,51.58
2023-04-17T08:30:04.703Z,48.22
2023-04-17T08:32:37.530Z,44.70
2023-04-17T08:35:04.614Z,39.65
2023-04-17T08:37:32.177Z,45.08
2023-04-17T08:39:59.051Z,45.28
2023-04-17T08:42:26.039Z,41.63
2023-04-17T08:44:53.619Z,44.03
2023-04-17T08:47:20.454Z,50.42
2023-04-17T08:49:47.437Z,46.28
2023-04-17T08:52:14.548Z,48.35
2023-04-17T08:54:41.727Z,44.10
2023-04-17T08:57:10.941Z,45.47
2023-04-17T08:59:37.889Z,44.63
2023-04-17T09:02:08.320Z,42.67
2023-04-17T09:04:37.464Z,42.78
2023-04-17T09:07:05.140Z,45.42
2023-04-17T09:09:47.649Z,47.47
2023-04-17T09:12:14.489Z,49.00
2023-04-17T09:14:41.368Z,46.45
2023-04-17T09:17:08.256Z,43.60
2023-04-17T09:19:35.488Z,43.80
2023-04-17T09:22:21.236Z,42.17
2023-04-17T09:24:48.859Z,44.97
2023-04-17T09:27:22.426Z,41.45
2023-04-17T09:29:59.511Z,40.72
2023-04-17T09:32:26.601Z,39.25
2023-04-17T09:34:53.990Z,39.78
2023-04-17T09:37:21.115Z,47.42
2023-04-17T09:39:58.898Z,43.58
2023-04-17T09:42:26.554Z,41.03
2023-04-17T09:44:54.625Z,41.13
2023-04-17T09:47:22.767Z,42.45
2023-04-17T09:49:52.421Z,40.90
2023-04-17T09:52:20.007Z,38.28
2023-04-17T09:54:47.411Z,35.83
2023-04-17T09:57:14.235Z,42.15
2023-04-17T09:59:41.929Z,40.42
2023-04-17T10:02:12.562Z,40.05
2023-04-17T10:04:40.753Z,37.92
2023-04-17T10:07:07.907Z,37.65
2023-04-17T10:09:34.910Z,38.33
2023-04-17T10:12:04.063Z,45.78
2023-04-17T10:14:32.653Z,38.75
2023-04-17T10:17:02.117Z,35.80
2023-04-17T10:19:36.712Z,40.33
2023-04-17T10:22:15.884Z,39.13
2023-04-17T10:24:43.106Z,38.10
2023-04-17T10:27:29.165Z,32.05
2023-04-17T10:29:57.121Z,38.38
2023-04-17T10:32:31.291Z,37.13
2023-04-17T10:34:59.404Z,35.67
2023-04-17T10:37:45.293Z,38.83
2023-04-17T10:40:14.098Z,39.20
2023-04-17T10:42:41.194Z,40.30
2023-04-17T10:45:18.206Z,39.92
2023-04-17T10:47:57.937Z,36.47
2023-04-17T10:50:28.186Z,39.88
2023-04-17T10:52:54.908Z,37.25
2023-04-17T10:55:23.208Z,36.55
2023-04-17T10:57:53.305Z,37.17
2023-04-17T11:00:21.556Z,35.78
2023-04-17T11:02:50.452Z,32.97
2023-04-17T11:05:18.258Z,36.83
2023-04-17T11:07:50.714Z,34.15
2023-04-17T11:10:21.702Z,36.45
2023-04-17T11:12:49.277Z,35.28
2023-04-17T11:15:18.937Z,35.65
2023-04-17T11:17:46.989Z,36.13
2023-04-17T11:20:17.388Z,35.13
2023-04-17T11:22:44.779Z,32.95
2023-04-17T11:25:21.768Z,32.80
2023-04-17T11:27:52.747Z,34.75
2023-04-17T11:30:25.964Z,34.70
2023-04-17T11:32:53.501Z,41.40
2023-04-17T11:35:24.890Z,33.72
2023-04-17T11:38:04.763Z,31.33
2023-04-17T11:40:31.812Z,38.55
2023-04-17T11:43:03.138Z,33.95
2023-04-17T11:45:34.316Z,34.75
2023-04-17T11:48:02.565Z,33.33
2023-04-17T11:50:29.979Z,32.90
2023-04-17T11:52:57.711Z,31.73
2023-04-17T11:55:30.288Z,32.90
2023-04-17T11:58:07.490Z,32.75
2023-04-17T12:00:34.484Z,30.45
2023-04-17T12:03:02.462Z,27.33
2023-04-17T12:05:30.147Z,28.75
2023-04-17T12:08:04.610Z,29.83
2023-04-17T12:10:37.502Z,33.95
2023-04-17T12:13:04.499Z,34.97
2023-04-17T12:15:31.321Z,28.35
2023-04-17T12:17:58.244Z,34.92
2023-04-17T12:20:26.787Z,29.48
2023-04-17T12:22:54.427Z,35.00
2023-04-17T12:25:21.632Z,29.25
2023-04-17T12:27:49.446Z,32.97
2023-04-17T12:30:16.505Z,36.75
2023-04-17T12:32:49.778Z,27.02
2023-04-17T12:35:16.592Z,34.53
2023-04-17T12:37:48.366Z,30.58
2023-04-17T12:40:16.981Z,30.88
2023-04-17T12:42:49.163Z,28.15
2023-04-17T12:45:17.116Z,25.95
2023-04-17T12:47:44.328Z,29.65
2023-04-17T12:50:14.160Z,25.73
2023-04-17T12:52:41.434Z,27.13
2023-04-17T12:55:08.698Z,26.98
2023-04-17T12:57:36.727Z,27.17
2023-04-17T13:00:09.678Z,27.73
2023-04-17T13:02:36.678Z,26.63
2023-04-17T13:05:04.805Z,27.27
2023-04-17T13:07:31.845Z,26.50
2023-04-17T13:09:58.837Z,26.73
2023-04-17T13:12:26.152Z,23.67
2023-04-17T13:14:53.144Z,22.70
2023-04-17T13:17:21.138Z,26.60
2023-04-17T13:19:48.261Z,33.63
2023-04-17T13:22:16.133Z,25.02
2023-04-17T13:24:43.254Z,32.90
2023-04-17T13:27:10.671Z,26.95
2023-04-17T13:29:39.175Z,25.23
2023-04-17T13:32:06.211Z,24.73
2023-04-17T13:34:32.951Z,23.08
2023-04-17T13:36:59.945Z,24.27
2023-04-17T13:39:26.999Z,22.65
2023-04-17T13:41:54.247Z,22.50
2023-04-17T13:44:21.545Z,24.85
2023-04-17T13:46:49.483Z,25.20
2023-04-17T13:49:16.287Z,24.75
2023-04-17T13:51:43.392Z,24.70
2023-04-17T13:54:10.589Z,26.92
2023-04-17T13:56:37.478Z,22.02
2023-04-17T13:59:05.982Z,22.08
2023-04-17T14:01:32.912Z,22.83
2023-04-17T14:04:02.859Z,19.92
2023-04-17T14:06:31.403Z,20.30
2023-04-17T14:08:58.401Z,23.85
2023-04-17T14:11:25.147Z,25.70
2023-04-17T14:13:52.223Z,21.95
2023-04-17T14:16:19.432Z,22.20
2023-04-17T14:18:47.653Z,23.48
2023-04-17T14:21:15.105Z,23.98
2023-04-17T14:23:42.162Z,26.17
2023-04-17T14:26:09.387Z,23.92
2023-04-17T14:28:36.145Z,21.67
2023-04-17T14:31:03.328Z,22.55
2023-04-17T14:33:30.217Z,19.50
2023-04-17T14:35:57.760Z,23.70
2023-04-17T14:38:25.048Z,20.83
2023-04-17T14:40:51.848Z,22.67
2023-04-17T14:43:18.680Z,21.77
2023-04-17T14:45:46.706Z,18.17
2023-04-17T14:48:13.688Z,19.13
2023-04-17T14:50:40.829Z,16.10
2023-04-17T14:53:07.572Z,17.98
2023-04-17T14:55:34.504Z,15.20
2023-04-17T14:58:03.937Z,19.10
2023-04-17T15:00:31.926Z,22.83
2023-04-17T15:02:58.755Z,22.67
2023-04-17T15:05:25.817Z,22.48
2023-04-17T15:07:53.160Z,25.05
2023-04-17T15:10:20.028Z,18.98
2023-04-17T15:12:47.181Z,21.58
2023-04-17T15:15:13.991Z,20.33
2023-04-17T15:17:43.920Z,16.45
2023-04-17T15:20:11.344Z,16.67
2023-04-17T15:22:38.556Z,16.00
2023-04-17T15:25:06.145Z,17.08
2023-04-17T15:27:32.995Z,19.77
2023-04-17T15:29:59.828Z,18.23
2023-04-17T15:32:26.937Z,19.63
2023-04-17T15:34:54.020Z,22.17
2023-04-17T15:37:23.394Z,24.20
2023-04-17T15:39:50.633Z,19.08
2023-04-17T15:42:17.535Z,18.05
2023-04-17T15:44:44.461Z,18.50
2023-04-17T15:47:11.314Z,17.45
2023-04-17T15:49:38.220Z,21.17
2023-04-17T15:52:05.694Z,20.60
2023-04-17T15:54:32.941Z,17.80
2023-04-17T15:56:59.916Z,18.05
2023-04-17T15:59:26.746Z,15.98
2023-04-17T16:01:53.777Z,16.08
2023-04-17T16:04:21.089Z,20.08
2023-04-17T16:06:48.032Z,22.38
2023-04-17T16:09:17.949Z,26.48
2023-04-17T16:11:44.867Z,30.52
2023-04-17T16:14:11.776Z,28.27
2023-04-17T16:16:38.620Z,24.52
2023-04-17T16:19:05.828Z,26.95
2023-04-17T16:21:32.825Z,27.20
2023-04-17T16:23:59.754Z,31.33
2023-04-17T16:26:26.612Z,27.77
2023-04-17T16:28:53.646Z,27.35
2023-04-17T16:31:21.360Z,26.27
2023-04-17T16:33:48.373Z,27.13
2023-04-17T16:36:15.176Z,27.17
2023-04-17T16:38:42.216Z,29.77
2023-04-17T16:41:09.239Z,28.40
2023-04-17T16:43:36.513Z,31.20
2023-04-17T16:46:10.914Z,26.58
2023-04-17T16:48:41.577Z,27.15
2023-04-17T16:51:09.390Z,29.10
2023-04-17T16:53:36.301Z,29.52
2023-04-17T16:56:03.219Z,27.00
2023-04-17T16:58:31.180Z,23.90
2023-04-17T17:00:58.006Z,26.58
2023-04-17T17:03:24.972Z,28.02
2023-04-17T17:05:51.976Z,27.08
2023-04-17T17:08:21.107Z,29.20
2023-04-17T17:10:49.149Z,26.25
2023-04-17T17:13:16.075Z,28.30
2023-04-17T17:15:42.944Z,25.45
2023-04-17T17:18:10.361Z,25.25
2023-04-17T17:20:37.158Z,22.00
2023-04-17T17:23:03.846Z,24.88
2023-04-17T17:25:31.160Z,22.42
2023-04-17T17:27:58.034Z,23.55
2023-04-17T17:30:24.780Z,24.05
2023-04-17T17:32:51.652Z,26.60
2023-04-17T17:35:18.872Z,26.08
2023-04-17T17:37:45.686Z,25.13
2023-04-17T17:40:12.772Z,28.55
2023-04-17T17:42:39.632Z,24.10
2023-04-17T17:45:06.677Z,21.92
2023-04-17T17:47:33.690Z,25.80
2023-04-17T17:50:00.787Z,26.23
2023-04-17T17:52:27.608Z,25.98
2023-04-17T17:54:54.736Z,25.55
2023-04-17T17:57:21.598Z,27.38
2023-04-17T17:59:48.461Z,29.10
2023-04-17T18:02:15.551Z,26.05
2023-04-17T18:04:42.641Z,24.90
2023-04-17T18:07:09.625Z,25.42
2023-04-17T18:09:36.863Z,25.95
2023-04-17T18:12:03.997Z,28.90
2023-04-17T18:14:31.772Z,28.33
2023-04-17T18:16:58.780Z,28.40
2023-04-17T18:19:25.674Z,27.90
2023-04-17T18:21:52.474Z,26.35
2023-04-17T18:24:19.360Z,29.60
2023-04-17T18:26:46.484Z,29.30
2023-04-17T18:29:13.284Z,30.42
2023-04-17T18:31:40.738Z,28.63
2023-04-17T18:34:07.749Z,27.50
2023-04-17T18:36:34.550Z,25.35
2023-04-17T18:39:01.468Z,30.23
2023-04-17T18:41:28.429Z,30.23
2023-04-17T18:43:56.796Z,28.80
2023-04-17T18:46:24.456Z,30.20
2023-04-17T18:48:51.421Z,28.13
2023-04-17T18:51:19.124Z,35.47
2023-04-17T18:53:46.051Z,32.35
2023-04-17T18:56:14.906Z,31.13
2023-04-17T18:58:41.879Z,38.05
2023-04-17T19:01:10.905Z,34.03
2023-04-17T19:03:38.216Z,35.05
2023-04-17T19:06:06.742Z,32.55
2023-04-17T19:08:33.947Z,36.83
2023-04-17T19:11:00.875Z,33.50
2023-04-17T19:13:28.587Z,32.17
2023-04-17T19:15:55.760Z,36.13
2023-04-17T19:18:22.616Z,33.72
2023-04-17T19:20:49.659Z,33.30
2023-04-17T19:23:16.896Z,32.58
2023-04-17T19:25:43.865Z,35.47
2023-04-17T19:28:11.403Z,34.05
2023-04-17T19:30:38.788Z,37.40
2023-04-17T19:33:06.920Z,49.25
2023-04-17T19:35:33.873Z,39.13
2023-04-17T19:38:02.922Z,39.30
2023-04-17T19:40:29.707Z,38.65
2023-04-17T19:43:01.267Z,44.45
2023-04-17T19:45:28.264Z,39.35
2023-04-17T19:47:57.108Z,37.90
2023-04-17T19:50:26.538Z,41.83
2023-04-17T19:52:54.238Z,44.13
2023-04-17T19:55:21.298Z,41.63
2023-04-17T19:57:49.634Z,39.88
2023-04-17T20:00:17.987Z,38.25
2023-04-17T20:02:44.994Z,42.70
2023-04-17T20:05:11.986Z,40.42
2023-04-17T20:07:38.804Z,42.67
2023-04-17T20:10:06.630Z,42.75
2023-04-17T20:12:33.307Z,40.60
2023-04-17T20:15:00.249Z,38.90
2023-04-17T20:17:27.171Z,41.20
2023-04-17T20:19:55.433Z,41.15
2023-04-17T20:22:22.337Z,42.75
2023-04-17T20:24:50.811Z,42.03
2023-04-17T20:27:18.851Z,40.78
2023-04-17T20:29:45.612Z,41.40
2023-04-17T20:32:12.444Z,38.05
2023-04-17T20:34:42.423Z,39.15
2023-04-17T20:37:09.673Z,40.72
2023-04-17T20:39:36.684Z,39.83
2023-04-17T20:42:03.866Z,44.63
2023-04-17T20:44:31.584Z,39.53
2023-04-17T20:46:58.368Z,41.53
2023-04-17T20:49:25.352Z,44.63
2023-04-17T20:51:52.073Z,41.47
2023-04-17T20:54:18.829Z,39.08
2023-04-17T20:56:46.191Z,42.22
2023-04-17T20:59:13.057Z,38.60
2023-04-17T21:01:39.867Z,37.72
2023-04-17T21:04:07.091Z,40.42
2023-04-17T21:06:34.143Z,46.47
2023-04-17T21:09:01.087Z,46.67
2023-04-17T21:11:27.882Z,48.35
2023-04-17T21:13:54.786Z,42.85
2023-04-17T21:16:21.769Z,38.03
2023-04-17T21:18:48.772Z,39.35
2023-04-17T21:21:15.833Z,42.70
2023-04-17T21:23:42.783Z,41.03
2023-04-17T21:26:09.763Z,42.22
2023-04-17T21:28:37.629Z,41.10
2023-04-17T21:31:08.459Z,40.45
2023-04-17T21:33:36.582Z,44.28
2023-04-17T21:36:03.506Z,40.95
2023-04-17T21:38:30.451Z,43.67
2023-04-17T21:40:58.275Z,49.47
2023-04-17T21:43:25.247Z,44.95
2023-04-17T21:45:52.378Z,44.05
2023-04-17T21:48:19.688Z,49.83
2023-04-17T21:50:46.577Z,42.53
2023-04-17T21:53:13.391Z,49.83
2023-04-17T21:55:40.973Z,48.05
2023-04-17T21:58:07.895Z,47.15
2023-04-17T22:00:34.803Z,47.80
2023-04-17T22:03:01.905Z,43.38
2023-04-17T22:05:28.722Z,52.65
2023-04-17T22:07:58.423Z,45.67
2023-04-17T22:10:25.364Z,43.55
2023-04-17T22:12:52.398Z,42.63
2023-04-17T22:15:19.369Z,44.65
2023-04-17T22:17:49.162Z,44.95
2023-04-17T22:20:34.908Z,43.97
2023-04-17T22:23:20.465Z,42.42
2023-04-17T22:26:43.825Z,46.72
2023-04-17T22:29:29.457Z,41.03
2023-04-17T22:32:14.642Z,47.78
2023-04-17T22:35:00.194Z,41.63
2023-04-17T22:38:03.884Z,40.50
2023-04-17T22:41:07.902Z,45.35
2023-04-17T22:43:53.609Z,44.33
2023-04-17T22:46:39.242Z,43.30
2023-04-17T22:49:06.619Z,39.75
2023-04-17T22:52:11.081Z,42.85
2023-04-17T22:55:15.523Z,40.75
2023-04-17T22:58:03.866Z,38.70
2023-04-17T23:00:49.738Z,41.38
2023-04-17T23:03:35.358Z,41.20
2023-04-17T23:06:39.732Z,37.63
2023-04-17T23:09:06.543Z,35.97
2023-04-17T23:11:33.802Z,35.00
2023-04-17T23:14:01.398Z,40.47
2023-04-17T23:16:29.218Z,38.67
2023-04-17T23:18:56.196Z,36.90
2023-04-17T23:21:23.140Z,38.60
2023-04-17T23:23:50.698Z,37.03
2023-04-17T23:26:17.664Z,38.72
2023-04-17T23:28:44.503Z,36.45
2023-04-17T23:31:11.456Z,40.50
2023-04-17T23:33:38.299Z,38.97
2023-04-17T23:36:05.104Z,35.42
2023-04-17T23:38:32.167Z,38.70
2023-04-17T23:40:59.026Z,39.63
2023-04-17T23:43:25.742Z,37.35
2023-04-17T23:45:52.721Z,40.65
2023-04-17T23:48:19.814Z,37.33
2023-04-17T23:50:46.692Z,36.53
2023-04-17T23:53:13.748Z,38.35
2023-04-17T23:55:41.497Z,33.95
2023-04-17T23:58:09.370Z,35.40
